sensor_id;sensor_type;location;lat;lon;timestamp;P1;durP1;ratioP1;P2;durP2;ratioP2
41887;SDS011;63122;52.424;13.458;2024-01-15T01:41:56;8.77;;;5.40;;
41887;SDS011;63122;52.424;13.458;2024-01-15T01:48:35;15.80;;;7.00;;
41887;SDS011;63122;52.424;13.458;2024-01-15T01:50:38;10.30;;;5.37;;
41887;SDS011;63122;52.424;13.458;2024-01-15T01:52:49;12.87;;;7.37;;
41887;SDS011;63122;52.424;13.458;2024-01-15T02:47:47;9.57;;;5.90;;
41887;SDS011;63122;52.424;13.458;2024-01-15T02:49:53;7.67;;;3.40;;
41887;SDS011;63122;52.424;13.458;2024-01-15T02:52:53;9.33;;;3.80;;
41887;SDS011;63122;52.424;13.458;2024-01-15T02:55:42;10.20;;;5.27;;
41887;SDS011;63122;52.424;13.458;2024-01-15T02:57:39;10.53;;;6.60;;
41887;SDS011;63122;52.424;13.458;2024-01-15T02:59:56;12.53;;;4.97;;
41887;SDS011;63122;52.424;13.458;2024-01-15T03:01:59;10.67;;;5.23;;
41887;SDS011;63122;52.424;13.458;2024-01-15T03:04:51;5.83;;;2.80;;
41887;SDS011;63122;52.424;13.458;2024-01-15T03:07:10;9.30;;;4.97;;
41887;SDS011;63122;52.424;13.458;2024-01-15T03:10:02;13.87;;;5.10;;
41887;SDS011;63122;52.424;13.458;2024-01-15T03:12:00;10.37;;;6.43;;
41887;SDS011;63122;52.424;13.458;2024-01-15T03:14:26;8.03;;;4.87;;
41887;SDS011;63122;52.424;13.458;2024-01-15T03:16:56;7.83;;;5.20;;
41887;SDS011;63122;52.424;13.458;2024-01-15T03:22:43;10.47;;;5.40;;
41887;SDS011;63122;52.424;13.458;2024-01-15T03:25:57;10.87;;;5.93;;
41887;SDS011;63122;52.424;13.458;2024-01-15T03:28:20;7.60;;;3.77;;
41887;SDS011;63122;52.424;13.458;2024-01-15T03:30:35;7.37;;;3.50;;
41887;SDS011;63122;52.424;13.458;2024-01-15T03:32:34;7.43;;;4.00;;
41887;SDS011;63122;52.424;13.458;2024-01-15T03:34:33;10.97;;;4.63;;
41887;SDS011;63122;52.424;13.458;2024-01-15T03:36:29;8.30;;;4.43;;
41887;SDS011;63122;52.424;13.458;2024-01-15T03:38:27;11.97;;;6.03;;
41887;SDS011;63122;52.424;13.458;2024-01-15T03:40:25;7.80;;;4.33;;
41887;SDS011;63122;52.424;13.458;2024-01-15T03:42:21;8.83;;;4.47;;
41887;SDS011;63122;52.424;13.458;2024-01-15T03:44:17;18.10;;;5.80;;
41887;SDS011;63122;52.424;13.458;2024-01-15T03:46:10;9.10;;;4.13;;
41887;SDS011;63122;52.424;13.458;2024-01-15T03:48:05;11.03;;;3.50;;
41887;SDS011;63122;52.424;13.458;2024-01-15T03:49:59;11.93;;;4.17;;
41887;SDS011;63122;52.424;13.458;2024-01-15T03:51:57;14.57;;;4.77;;
41887;SDS011;63122;52.424;13.458;2024-01-15T03:53:57;6.97;;;4.03;;
41887;SDS011;63122;52.424;13.458;2024-01-15T03:55:54;7.37;;;3.53;;
41887;SDS011;63122;52.424;13.458;2024-01-15T03:57:49;9.00;;;4.90;;
41887;SDS011;63122;52.424;13.458;2024-01-15T03:59:48;8.03;;;4.13;;
41887;SDS011;63122;52.424;13.458;2024-01-15T04:01:43;7.33;;;3.47;;
41887;SDS011;63122;52.424;13.458;2024-01-15T04:03:47;13.47;;;4.97;;
41887;SDS011;63122;52.424;13.458;2024-01-15T04:05:43;5.80;;;3.63;;
41887;SDS011;63122;52.424;13.458;2024-01-15T04:07:40;9.90;;;4.87;;
41887;SDS011;63122;52.424;13.458;2024-01-15T04:09:36;7.90;;;3.53;;
41887;SDS011;63122;52.424;13.458;2024-01-15T04:11:29;5.10;;;2.70;;
41887;SDS011;63122;52.424;13.458;2024-01-15T04:13:25;6.37;;;2.70;;
41887;SDS011;63122;52.424;13.458;2024-01-15T04:15:17;6.97;;;3.67;;
41887;SDS011;63122;52.424;13.458;2024-01-15T04:17:13;6.87;;;3.23;;
41887;SDS011;63122;52.424;13.458;2024-01-15T04:19:06;11.03;;;3.30;;
41887;SDS011;63122;52.424;13.458;2024-01-15T04:21:03;12.27;;;5.57;;
41887;SDS011;63122;52.424;13.458;2024-01-15T04:22:59;5.90;;;2.67;;
41887;SDS011;63122;52.424;13.458;2024-01-15T04:24:54;12.40;;;4.03;;
41887;SDS011;63122;52.424;13.458;2024-01-15T04:26:49;13.90;;;4.13;;
41887;SDS011;63122;52.424;13.458;2024-01-15T04:28:43;8.13;;;3.50;;
41887;SDS011;63122;52.424;13.458;2024-01-15T04:30:38;10.80;;;3.83;;
41887;SDS011;63122;52.424;13.458;2024-01-15T04:32:33;13.93;;;3.97;;
41887;SDS011;63122;52.424;13.458;2024-01-15T04:34:29;7.43;;;3.33;;
41887;SDS011;63122;52.424;13.458;2024-01-15T04:36:25;6.00;;;3.33;;
41887;SDS011;63122;52.424;13.458;2024-01-15T04:38:22;11.60;;;4.63;;
41887;SDS011;63122;52.424;13.458;2024-01-15T04:40:18;14.87;;;3.37;;
41887;SDS011;63122;52.424;13.458;2024-01-15T04:42:10;5.27;;;2.90;;
41887;SDS011;63122;52.424;13.458;2024-01-15T04:44:06;10.93;;;3.63;;
41887;SDS011;63122;52.424;13.458;2024-01-15T04:45:58;4.73;;;2.47;;
41887;SDS011;63122;52.424;13.458;2024-01-15T04:47:55;8.23;;;3.63;;
41887;SDS011;63122;52.424;13.458;2024-01-15T04:49:50;7.83;;;2.70;;
41887;SDS011;63122;52.424;13.458;2024-01-15T04:51:43;6.10;;;1.90;;
41887;SDS011;63122;52.424;13.458;2024-01-15T04:53:41;6.77;;;3.10;;
41887;SDS011;63122;52.424;13.458;2024-01-15T04:55:37;7.43;;;2.83;;
41887;SDS011;63122;52.424;13.458;2024-01-15T04:57:32;9.53;;;2.53;;
41887;SDS011;63122;52.424;13.458;2024-01-15T04:59:25;6.17;;;2.97;;
41887;SDS011;63122;52.424;13.458;2024-01-15T05:01:20;9.87;;;3.17;;
41887;SDS011;63122;52.424;13.458;2024-01-15T05:03:16;8.70;;;2.67;;
41887;SDS011;63122;52.424;13.458;2024-01-15T05:05:09;7.93;;;2.77;;
41887;SDS011;63122;52.424;13.458;2024-01-15T05:07:05;14.03;;;3.37;;
41887;SDS011;63122;52.424;13.458;2024-01-15T05:09:02;4.80;;;2.10;;
41887;SDS011;63122;52.424;13.458;2024-01-15T05:10:58;6.37;;;2.50;;
41887;SDS011;63122;52.424;13.458;2024-01-15T05:12:50;9.80;;;2.60;;
41887;SDS011;63122;52.424;13.458;2024-01-15T05:14:46;8.70;;;3.47;;
41887;SDS011;63122;52.424;13.458;2024-01-15T05:16:46;7.33;;;3.30;;
41887;SDS011;63122;52.424;13.458;2024-01-15T05:18:39;4.93;;;1.83;;
41887;SDS011;63122;52.424;13.458;2024-01-15T05:20:35;8.33;;;2.03;;
41887;SDS011;63122;52.424;13.458;2024-01-15T05:22:28;8.63;;;2.73;;
41887;SDS011;63122;52.424;13.458;2024-01-15T05:24:26;7.30;;;2.83;;
41887;SDS011;63122;52.424;13.458;2024-01-15T05:26:19;9.33;;;2.53;;
41887;SDS011;63122;52.424;13.458;2024-01-15T05:28:14;4.73;;;2.10;;
41887;SDS011;63122;52.424;13.458;2024-01-15T05:30:08;10.97;;;3.67;;
41887;SDS011;63122;52.424;13.458;2024-01-15T05:32:04;3.87;;;2.03;;
41887;SDS011;63122;52.424;13.458;2024-01-15T05:34:00;8.97;;;2.10;;
41887;SDS011;63122;52.424;13.458;2024-01-15T05:35:55;3.20;;;2.00;;
41887;SDS011;63122;52.424;13.458;2024-01-15T05:37:51;12.73;;;2.53;;
41887;SDS011;63122;52.424;13.458;2024-01-15T05:39:49;6.77;;;1.83;;
41887;SDS011;63122;52.424;13.458;2024-01-15T05:41:42;11.73;;;2.43;;
41887;SDS011;63122;52.424;13.458;2024-01-15T05:43:37;10.33;;;2.83;;
41887;SDS011;63122;52.424;13.458;2024-01-15T05:45:33;3.27;;;1.67;;
41887;SDS011;63122;52.424;13.458;2024-01-15T05:47:27;10.17;;;2.60;;
41887;SDS011;63122;52.424;13.458;2024-01-15T05:49:22;7.33;;;2.50;;
41887;SDS011;63122;52.424;13.458;2024-01-15T05:51:17;6.43;;;2.20;;
41887;SDS011;63122;52.424;13.458;2024-01-15T05:53:14;13.70;;;2.97;;
41887;SDS011;63122;52.424;13.458;2024-01-15T05:55:10;9.73;;;2.80;;
41887;SDS011;63122;52.424;13.458;2024-01-15T05:57:05;15.07;;;2.40;;
41887;SDS011;63122;52.424;13.458;2024-01-15T05:59:02;4.73;;;1.73;;
41887;SDS011;63122;52.424;13.458;2024-01-15T06:00:55;8.33;;;3.00;;
41887;SDS011;63122;52.424;13.458;2024-01-15T06:02:51;5.37;;;2.07;;
41887;SDS011;63122;52.424;13.458;2024-01-15T06:04:44;9.47;;;2.70;;
41887;SDS011;63122;52.424;13.458;2024-01-15T06:06:40;5.90;;;2.37;;
41887;SDS011;63122;52.424;13.458;2024-01-15T06:08:33;5.50;;;2.53;;
41887;SDS011;63122;52.424;13.458;2024-01-15T06:10:30;2.67;;;1.27;;
41887;SDS011;63122;52.424;13.458;2024-01-15T06:12:27;7.93;;;2.33;;
41887;SDS011;63122;52.424;13.458;2024-01-15T06:14:23;10.93;;;2.60;;
41887;SDS011;63122;52.424;13.458;2024-01-15T06:16:18;5.30;;;1.60;;
41887;SDS011;63122;52.424;13.458;2024-01-15T06:18:14;10.27;;;2.70;;
41887;SDS011;63122;52.424;13.458;2024-01-15T06:20:11;6.57;;;1.80;;
41887;SDS011;63122;52.424;13.458;2024-01-15T06:22:06;3.73;;;1.77;;
41887;SDS011;63122;52.424;13.458;2024-01-15T06:23:59;5.70;;;2.37;;
41887;SDS011;63122;52.424;13.458;2024-01-15T06:25:57;7.37;;;1.80;;
41887;SDS011;63122;52.424;13.458;2024-01-15T06:27:55;8.77;;;2.20;;
41887;SDS011;63122;52.424;13.458;2024-01-15T06:29:51;14.07;;;2.63;;
41887;SDS011;63122;52.424;13.458;2024-01-15T06:31:48;7.70;;;1.87;;
41887;SDS011;63122;52.424;13.458;2024-01-15T06:33:43;8.77;;;2.93;;
41887;SDS011;63122;52.424;13.458;2024-01-15T06:35:41;10.13;;;1.83;;
41887;SDS011;63122;52.424;13.458;2024-01-15T06:37:35;10.63;;;2.63;;
41887;SDS011;63122;52.424;13.458;2024-01-15T06:39:31;6.93;;;2.27;;
41887;SDS011;63122;52.424;13.458;2024-01-15T06:41:29;12.33;;;2.60;;
41887;SDS011;63122;52.424;13.458;2024-01-15T06:43:22;12.87;;;1.70;;
41887;SDS011;63122;52.424;13.458;2024-01-15T06:45:17;14.23;;;2.80;;
41887;SDS011;63122;52.424;13.458;2024-01-15T06:47:13;6.63;;;1.40;;
41887;SDS011;63122;52.424;13.458;2024-01-15T06:49:06;16.13;;;1.97;;
41887;SDS011;63122;52.424;13.458;2024-01-15T06:51:02;7.53;;;1.70;;
41887;SDS011;63122;52.424;13.458;2024-01-15T06:52:57;10.17;;;2.17;;
41887;SDS011;63122;52.424;13.458;2024-01-15T06:54:50;10.03;;;2.10;;
41887;SDS011;63122;52.424;13.458;2024-01-15T06:57:10;7.53;;;2.07;;
41887;SDS011;63122;52.424;13.458;2024-01-15T06:59:21;12.40;;;2.30;;
41887;SDS011;63122;52.424;13.458;2024-01-15T07:04:06;9.13;;;1.73;;
41887;SDS011;63122;52.424;13.458;2024-01-15T07:06:01;4.27;;;1.27;;
41887;SDS011;63122;52.424;13.458;2024-01-15T07:07:54;7.20;;;1.60;;
41887;SDS011;63122;52.424;13.458;2024-01-15T07:09:49;4.30;;;1.37;;
41887;SDS011;63122;52.424;13.458;2024-01-15T07:11:45;7.00;;;1.60;;
41887;SDS011;63122;52.424;13.458;2024-01-15T07:13:43;2.03;;;1.13;;
41887;SDS011;63122;52.424;13.458;2024-01-15T07:15:39;5.53;;;1.60;;
41887;SDS011;63122;52.424;13.458;2024-01-15T07:17:34;3.97;;;1.30;;
41887;SDS011;63122;52.424;13.458;2024-01-15T07:19:31;9.43;;;1.33;;
41887;SDS011;63122;52.424;13.458;2024-01-15T07:21:27;13.13;;;2.63;;
41887;SDS011;63122;52.424;13.458;2024-01-15T07:23:20;4.90;;;1.73;;
41887;SDS011;63122;52.424;13.458;2024-01-15T07:25:18;3.30;;;1.50;;
41887;SDS011;63122;52.424;13.458;2024-01-15T07:27:13;4.37;;;1.40;;
41887;SDS011;63122;52.424;13.458;2024-01-15T07:29:12;4.43;;;1.43;;
41887;SDS011;63122;52.424;13.458;2024-01-15T07:31:07;9.87;;;1.73;;
41887;SDS011;63122;52.424;13.458;2024-01-15T07:33:01;12.90;;;3.00;;
41887;SDS011;63122;52.424;13.458;2024-01-15T07:34:57;7.70;;;1.43;;
41887;SDS011;63122;52.424;13.458;2024-01-15T07:36:51;5.63;;;1.53;;
41887;SDS011;63122;52.424;13.458;2024-01-15T07:38:47;7.50;;;1.83;;
41887;SDS011;63122;52.424;13.458;2024-01-15T07:40:40;6.37;;;1.40;;
41887;SDS011;63122;52.424;13.458;2024-01-15T07:42:36;5.07;;;1.40;;
41887;SDS011;63122;52.424;13.458;2024-01-15T07:44:33;4.37;;;1.50;;
41887;SDS011;63122;52.424;13.458;2024-01-15T07:46:29;7.67;;;1.67;;
41887;SDS011;63122;52.424;13.458;2024-01-15T07:50:54;9.53;;;2.30;;
41887;SDS011;63122;52.424;13.458;2024-01-15T07:52:49;7.10;;;1.33;;
41887;SDS011;63122;52.424;13.458;2024-01-15T07:54:42;6.50;;;1.40;;
41887;SDS011;63122;52.424;13.458;2024-01-15T07:56:52;11.30;;;1.93;;
41887;SDS011;63122;52.424;13.458;2024-01-15T07:58:48;7.87;;;1.90;;
41887;SDS011;63122;52.424;13.458;2024-01-15T08:00:46;7.57;;;1.03;;
41887;SDS011;63122;52.424;13.458;2024-01-15T08:02:42;5.77;;;1.70;;
41887;SDS011;63122;52.424;13.458;2024-01-15T08:04:37;9.27;;;1.83;;
41887;SDS011;63122;52.424;13.458;2024-01-15T08:06:31;7.37;;;1.33;;
41887;SDS011;63122;52.424;13.458;2024-01-15T08:08:27;14.67;;;1.67;;
41887;SDS011;63122;52.424;13.458;2024-01-15T08:10:22;9.40;;;1.67;;
41887;SDS011;63122;52.424;13.458;2024-01-15T08:12:18;9.20;;;1.70;;
41887;SDS011;63122;52.424;13.458;2024-01-15T08:14:14;8.53;;;1.57;;
41887;SDS011;63122;52.424;13.458;2024-01-15T08:16:10;7.73;;;1.77;;
41887;SDS011;63122;52.424;13.458;2024-01-15T08:18:05;5.33;;;1.30;;
41887;SDS011;63122;52.424;13.458;2024-01-15T08:19:58;14.23;;;2.60;;
41887;SDS011;63122;52.424;13.458;2024-01-15T08:21:55;12.03;;;3.00;;
41887;SDS011;63122;52.424;13.458;2024-01-15T08:23:50;9.83;;;1.83;;
41887;SDS011;63122;52.424;13.458;2024-01-15T08:25:46;10.50;;;1.97;;
41887;SDS011;63122;52.424;13.458;2024-01-15T08:27:42;9.30;;;1.93;;
41887;SDS011;63122;52.424;13.458;2024-01-15T08:29:36;5.57;;;1.40;;
41887;SDS011;63122;52.424;13.458;2024-01-15T08:31:35;6.43;;;1.50;;
41887;SDS011;63122;52.424;13.458;2024-01-15T08:33:30;10.47;;;1.30;;
41887;SDS011;63122;52.424;13.458;2024-01-15T08:35:26;5.93;;;1.27;;
41887;SDS011;63122;52.424;13.458;2024-01-15T08:37:22;6.80;;;1.43;;
41887;SDS011;63122;52.424;13.458;2024-01-15T08:39:17;11.50;;;2.03;;
41887;SDS011;63122;52.424;13.458;2024-01-15T08:41:13;13.40;;;2.07;;
41887;SDS011;63122;52.424;13.458;2024-01-15T08:43:09;9.13;;;1.67;;
41887;SDS011;63122;52.424;13.458;2024-01-15T08:45:02;16.67;;;2.00;;
41887;SDS011;63122;52.424;13.458;2024-01-15T08:47:00;6.97;;;1.70;;
41887;SDS011;63122;52.424;13.458;2024-01-15T08:48:56;8.33;;;1.60;;
41887;SDS011;63122;52.424;13.458;2024-01-15T08:50:52;9.07;;;1.90;;
41887;SDS011;63122;52.424;13.458;2024-01-15T08:53:01;6.17;;;1.50;;
41887;SDS011;63122;52.424;13.458;2024-01-15T08:55:04;5.73;;;2.03;;
41887;SDS011;63122;52.424;13.458;2024-01-15T08:57:00;10.20;;;2.03;;
41887;SDS011;63122;52.424;13.458;2024-01-15T08:58:55;7.53;;;1.60;;
41887;SDS011;63122;52.424;13.458;2024-01-15T09:00:49;3.93;;;1.53;;
41887;SDS011;63122;52.424;13.458;2024-01-15T09:02:47;10.37;;;1.90;;
41887;SDS011;63122;52.424;13.458;2024-01-15T09:04:41;6.17;;;1.60;;
41887;SDS011;63122;52.424;13.458;2024-01-15T09:06:36;8.83;;;1.80;;
41887;SDS011;63122;52.424;13.458;2024-01-15T09:08:31;8.87;;;2.10;;
41887;SDS011;63122;52.424;13.458;2024-01-15T09:10:24;4.73;;;1.87;;
41887;SDS011;63122;52.424;13.458;2024-01-15T09:12:20;8.50;;;2.40;;
41887;SDS011;63122;52.424;13.458;2024-01-15T09:14:18;9.20;;;2.03;;
41887;SDS011;63122;52.424;13.458;2024-01-15T09:16:27;5.43;;;1.73;;
41887;SDS011;63122;52.424;13.458;2024-01-15T09:18:28;7.97;;;1.70;;
41887;SDS011;63122;52.424;13.458;2024-01-15T09:20:24;10.53;;;1.80;;
41887;SDS011;63122;52.424;13.458;2024-01-15T09:22:20;4.83;;;1.47;;
41887;SDS011;63122;52.424;13.458;2024-01-15T09:24:16;5.90;;;1.30;;
41887;SDS011;63122;52.424;13.458;2024-01-15T09:26:18;5.87;;;2.07;;
41887;SDS011;63122;52.424;13.458;2024-01-15T09:28:14;6.97;;;1.83;;
41887;SDS011;63122;52.424;13.458;2024-01-15T09:30:09;4.07;;;1.87;;
41887;SDS011;63122;52.424;13.458;2024-01-15T09:32:06;8.77;;;1.73;;
41887;SDS011;63122;52.424;13.458;2024-01-15T09:34:04;13.03;;;2.63;;
41887;SDS011;63122;52.424;13.458;2024-01-15T09:36:00;6.60;;;1.97;;
41887;SDS011;63122;52.424;13.458;2024-01-15T09:37:57;7.17;;;2.07;;
41887;SDS011;63122;52.424;13.458;2024-01-15T09:39:49;2.67;;;1.50;;
41887;SDS011;63122;52.424;13.458;2024-01-15T09:45:40;11.07;;;1.43;;
41887;SDS011;63122;52.424;13.458;2024-01-15T09:47:37;10.50;;;2.30;;
41887;SDS011;63122;52.424;13.458;2024-01-15T09:52:38;8.87;;;1.87;;
41887;SDS011;63122;52.424;13.458;2024-01-15T09:54:35;8.30;;;1.77;;
41887;SDS011;63122;52.424;13.458;2024-01-15T09:56:28;7.37;;;1.80;;
41887;SDS011;63122;52.424;13.458;2024-01-15T09:58:26;7.10;;;1.60;;
41887;SDS011;63122;52.424;13.458;2024-01-15T10:00:23;5.20;;;1.30;;
41887;SDS011;63122;52.424;13.458;2024-01-15T10:02:20;3.87;;;1.43;;
41887;SDS011;63122;52.424;13.458;2024-01-15T10:04:17;7.10;;;1.23;;
41887;SDS011;63122;52.424;13.458;2024-01-15T10:06:14;10.73;;;1.43;;
41887;SDS011;63122;52.424;13.458;2024-01-15T10:08:16;5.67;;;2.03;;
41887;SDS011;63122;52.424;13.458;2024-01-15T10:10:17;4.17;;;1.20;;
41887;SDS011;63122;52.424;13.458;2024-01-15T10:16:41;2.83;;;1.27;;
41887;SDS011;63122;52.424;13.458;2024-01-15T10:18:52;6.47;;;1.70;;
41887;SDS011;63122;52.424;13.458;2024-01-15T10:20:47;5.60;;;1.37;;
41887;SDS011;63122;52.424;13.458;2024-01-15T10:22:44;5.70;;;2.00;;
41887;SDS011;63122;52.424;13.458;2024-01-15T10:24:43;6.60;;;1.67;;
41887;SDS011;63122;52.424;13.458;2024-01-15T10:26:41;3.63;;;1.40;;
41887;SDS011;63122;52.424;13.458;2024-01-15T10:28:37;3.37;;;1.77;;
41887;SDS011;63122;52.424;13.458;2024-01-15T10:30:34;2.97;;;0.93;;
41887;SDS011;63122;52.424;13.458;2024-01-15T10:32:29;6.57;;;1.33;;
41887;SDS011;63122;52.424;13.458;2024-01-15T10:34:25;7.63;;;1.40;;
41887;SDS011;63122;52.424;13.458;2024-01-15T10:39:43;2.83;;;1.27;;
41887;SDS011;63122;52.424;13.458;2024-01-15T10:46:30;5.80;;;1.57;;
41887;SDS011;63122;52.424;13.458;2024-01-15T11:51:24;2.23;;;1.10;;
41887;SDS011;63122;52.424;13.458;2024-01-15T12:07:03;1.13;;;0.97;;
41887;SDS011;63122;52.424;13.458;2024-01-15T12:19:40;1.10;;;0.90;;
41887;SDS011;63122;52.424;13.458;2024-01-15T12:22:11;1.57;;;0.93;;
41887;SDS011;63122;52.424;13.458;2024-01-15T12:28:03;2.10;;;1.40;;
41887;SDS011;63122;52.424;13.458;2024-01-15T12:30:57;1.47;;;0.87;;
41887;SDS011;63122;52.424;13.458;2024-01-15T12:35:20;5.17;;;1.60;;
41887;SDS011;63122;52.424;13.458;2024-01-15T12:37:17;2.73;;;1.40;;
41887;SDS011;63122;52.424;13.458;2024-01-15T12:39:12;2.87;;;1.30;;
41887;SDS011;63122;52.424;13.458;2024-01-15T12:41:08;1.80;;;0.97;;
41887;SDS011;63122;52.424;13.458;2024-01-15T12:43:01;1.17;;;1.07;;
41887;SDS011;63122;52.424;13.458;2024-01-15T12:44:56;4.47;;;1.63;;
41887;SDS011;63122;52.424;13.458;2024-01-15T12:46:49;2.23;;;0.97;;
41887;SDS011;63122;52.424;13.458;2024-01-15T12:48:46;2.00;;;0.83;;
41887;SDS011;63122;52.424;13.458;2024-01-15T12:50:42;1.00;;;0.90;;
41887;SDS011;63122;52.424;13.458;2024-01-15T12:52:42;3.70;;;1.00;;
41887;SDS011;63122;52.424;13.458;2024-01-15T12:54:35;1.60;;;0.80;;
41887;SDS011;63122;52.424;13.458;2024-01-15T12:56:34;1.77;;;1.30;;
41887;SDS011;63122;52.424;13.458;2024-01-15T13:01:37;0.90;;;0.80;;
41887;SDS011;63122;52.424;13.458;2024-01-15T13:04:11;1.83;;;1.33;;
41887;SDS011;63122;52.424;13.458;2024-01-15T13:25:21;3.03;;;1.10;;
41887;SDS011;63122;52.424;13.458;2024-01-15T13:27:17;5.07;;;1.27;;
41887;SDS011;63122;52.424;13.458;2024-01-15T13:29:14;2.87;;;1.50;;
41887;SDS011;63122;52.424;13.458;2024-01-15T13:31:15;2.70;;;1.13;;
41887;SDS011;63122;52.424;13.458;2024-01-15T13:33:12;1.83;;;0.93;;
41887;SDS011;63122;52.424;13.458;2024-01-15T13:46:25;6.23;;;1.90;;
41887;SDS011;63122;52.424;13.458;2024-01-15T13:48:48;4.00;;;1.77;;
41887;SDS011;63122;52.424;13.458;2024-01-15T13:50:44;7.07;;;2.17;;
41887;SDS011;63122;52.424;13.458;2024-01-15T13:52:39;2.47;;;1.57;;
41887;SDS011;63122;52.424;13.458;2024-01-15T13:54:35;4.87;;;1.60;;
41887;SDS011;63122;52.424;13.458;2024-01-15T13:56:40;4.57;;;1.50;;
41887;SDS011;63122;52.424;13.458;2024-01-15T13:58:39;2.73;;;1.10;;
41887;SDS011;63122;52.424;13.458;2024-01-15T14:00:35;6.90;;;2.17;;
41887;SDS011;63122;52.424;13.458;2024-01-15T14:02:34;4.87;;;1.77;;
41887;SDS011;63122;52.424;13.458;2024-01-15T14:04:27;5.63;;;1.90;;
41887;SDS011;63122;52.424;13.458;2024-01-15T14:06:27;3.90;;;1.87;;
41887;SDS011;63122;52.424;13.458;2024-01-15T14:08:20;4.17;;;1.83;;
41887;SDS011;63122;52.424;13.458;2024-01-15T14:10:18;5.50;;;2.00;;
41887;SDS011;63122;52.424;13.458;2024-01-15T14:12:13;7.13;;;2.10;;
41887;SDS011;63122;52.424;13.458;2024-01-15T14:14:12;3.93;;;1.43;;
41887;SDS011;63122;52.424;13.458;2024-01-15T14:16:09;5.00;;;1.90;;
41887;SDS011;63122;52.424;13.458;2024-01-15T14:18:11;4.77;;;2.10;;
41887;SDS011;63122;52.424;13.458;2024-01-15T14:20:08;4.17;;;2.00;;
41887;SDS011;63122;52.424;13.458;2024-01-15T14:22:05;2.87;;;1.53;;
41887;SDS011;63122;52.424;13.458;2024-01-15T14:24:00;6.77;;;2.00;;
41887;SDS011;63122;52.424;13.458;2024-01-15T14:25:57;6.97;;;1.70;;
41887;SDS011;63122;52.424;13.458;2024-01-15T14:28:00;6.47;;;2.20;;
41887;SDS011;63122;52.424;13.458;2024-01-15T14:30:17;5.33;;;1.70;;
41887;SDS011;63122;52.424;13.458;2024-01-15T14:32:16;6.20;;;1.60;;
41887;SDS011;63122;52.424;13.458;2024-01-15T14:34:50;3.60;;;1.63;;
41887;SDS011;63122;52.424;13.458;2024-01-15T14:37:31;9.27;;;2.03;;
41887;SDS011;63122;52.424;13.458;2024-01-15T14:39:41;6.03;;;1.67;;
41887;SDS011;63122;52.424;13.458;2024-01-15T14:42:49;2.90;;;1.20;;
41887;SDS011;63122;52.424;13.458;2024-01-15T15:14:44;3.23;;;1.20;;
41887;SDS011;63122;52.424;13.458;2024-01-15T15:17:12;9.47;;;1.27;;
41887;SDS011;63122;52.424;13.458;2024-01-15T15:23:54;6.30;;;1.60;;
41887;SDS011;63122;52.424;13.458;2024-01-15T15:27:14;6.10;;;1.77;;
41887;SDS011;63122;52.424;13.458;2024-01-15T15:32:56;4.47;;;1.50;;
41887;SDS011;63122;52.424;13.458;2024-01-15T16:03:07;7.50;;;1.60;;
41887;SDS011;63122;52.424;13.458;2024-01-15T16:15:19;5.50;;;2.00;;
41887;SDS011;63122;52.424;13.458;2024-01-15T16:17:18;7.00;;;1.93;;
41887;SDS011;63122;52.424;13.458;2024-01-15T16:19:31;5.23;;;2.30;;
41887;SDS011;63122;52.424;13.458;2024-01-15T16:22:03;4.53;;;1.73;;
41887;SDS011;63122;52.424;13.458;2024-01-15T16:31:07;9.07;;;1.97;;
41887;SDS011;63122;52.424;13.458;2024-01-15T16:33:50;4.00;;;1.90;;
41887;SDS011;63122;52.424;13.458;2024-01-15T16:35:57;6.93;;;2.00;;
41887;SDS011;63122;52.424;13.458;2024-01-15T16:37:57;7.43;;;2.00;;
41887;SDS011;63122;52.424;13.458;2024-01-15T16:40:40;2.90;;;1.13;;
41887;SDS011;63122;52.424;13.458;2024-01-15T16:43:07;5.03;;;1.97;;
41887;SDS011;63122;52.424;13.458;2024-01-15T16:45:13;3.00;;;1.80;;
41887;SDS011;63122;52.424;13.458;2024-01-15T16:47:32;5.70;;;2.20;;
41887;SDS011;63122;52.424;13.458;2024-01-15T16:50:19;3.43;;;2.10;;
41887;SDS011;63122;52.424;13.458;2024-01-15T16:59:10;5.70;;;2.33;;
41887;SDS011;63122;52.424;13.458;2024-01-15T17:11:22;6.57;;;2.37;;
41887;SDS011;63122;52.424;13.458;2024-01-15T17:14:03;28.70;;;13.23;;
41887;SDS011;63122;52.424;13.458;2024-01-15T17:17:02;13.13;;;2.97;;
41887;SDS011;63122;52.424;13.458;2024-01-15T17:27:18;7.73;;;2.50;;
41887;SDS011;63122;52.424;13.458;2024-01-15T17:36:34;8.73;;;2.53;;
41887;SDS011;63122;52.424;13.458;2024-01-15T17:38:31;7.20;;;2.23;;
41887;SDS011;63122;52.424;13.458;2024-01-15T17:40:26;5.80;;;2.00;;
41887;SDS011;63122;52.424;13.458;2024-01-15T17:42:24;5.37;;;2.47;;
41887;SDS011;63122;52.424;13.458;2024-01-15T17:44:23;4.20;;;1.70;;
41887;SDS011;63122;52.424;13.458;2024-01-15T17:46:18;5.43;;;2.47;;
41887;SDS011;63122;52.424;13.458;2024-01-15T17:48:14;6.00;;;2.23;;
41887;SDS011;63122;52.424;13.458;2024-01-15T17:50:10;5.90;;;2.27;;
41887;SDS011;63122;52.424;13.458;2024-01-15T17:52:13;3.90;;;2.40;;
41887;SDS011;63122;52.424;13.458;2024-01-15T17:54:09;8.70;;;2.90;;
41887;SDS011;63122;52.424;13.458;2024-01-15T17:56:09;4.30;;;2.73;;
41887;SDS011;63122;52.424;13.458;2024-01-15T17:58:07;5.87;;;2.90;;
41887;SDS011;63122;52.424;13.458;2024-01-15T18:00:07;7.20;;;2.73;;
41887;SDS011;63122;52.424;13.458;2024-01-15T18:02:06;7.83;;;2.73;;
41887;SDS011;63122;52.424;13.458;2024-01-15T18:04:02;6.97;;;2.47;;
41887;SDS011;63122;52.424;13.458;2024-01-15T18:06:04;6.63;;;2.90;;
41887;SDS011;63122;52.424;13.458;2024-01-15T18:08:00;8.13;;;2.73;;
41887;SDS011;63122;52.424;13.458;2024-01-15T18:09:55;7.43;;;2.70;;
41887;SDS011;63122;52.424;13.458;2024-01-15T18:11:55;6.37;;;2.73;;
41887;SDS011;63122;52.424;13.458;2024-01-15T18:13:58;9.27;;;2.50;;
41887;SDS011;63122;52.424;13.458;2024-01-15T18:15:56;6.93;;;3.00;;
41887;SDS011;63122;52.424;13.458;2024-01-15T18:17:51;5.40;;;2.50;;
41887;SDS011;63122;52.424;13.458;2024-01-15T18:19:49;5.07;;;2.47;;
41887;SDS011;63122;52.424;13.458;2024-01-15T18:21:44;7.00;;;2.67;;
41887;SDS011;63122;52.424;13.458;2024-01-15T18:23:43;5.23;;;3.00;;
41887;SDS011;63122;52.424;13.458;2024-01-15T18:25:40;5.40;;;2.67;;
41887;SDS011;63122;52.424;13.458;2024-01-15T18:27:39;7.97;;;2.67;;
41887;SDS011;63122;52.424;13.458;2024-01-15T18:29:37;5.77;;;2.77;;
41887;SDS011;63122;52.424;13.458;2024-01-15T18:31:35;7.83;;;2.60;;
41887;SDS011;63122;52.424;13.458;2024-01-15T18:33:30;11.30;;;2.93;;
41887;SDS011;63122;52.424;13.458;2024-01-15T18:35:26;9.80;;;2.87;;
41887;SDS011;63122;52.424;13.458;2024-01-15T18:37:21;7.07;;;3.10;;
41887;SDS011;63122;52.424;13.458;2024-01-15T18:39:22;6.00;;;2.80;;
41887;SDS011;63122;52.424;13.458;2024-01-15T18:41:19;9.50;;;3.00;;
41887;SDS011;63122;52.424;13.458;2024-01-15T18:43:23;4.10;;;2.43;;
41887;SDS011;63122;52.424;13.458;2024-01-15T18:45:22;4.80;;;2.50;;
41887;SDS011;63122;52.424;13.458;2024-01-15T18:47:20;10.43;;;2.93;;
41887;SDS011;63122;52.424;13.458;2024-01-15T18:49:16;9.27;;;2.83;;
41887;SDS011;63122;52.424;13.458;2024-01-15T18:51:22;5.83;;;2.40;;
41887;SDS011;63122;52.424;13.458;2024-01-15T18:53:18;6.27;;;3.50;;
41887;SDS011;63122;52.424;13.458;2024-01-15T18:55:13;5.60;;;2.93;;
41887;SDS011;63122;52.424;13.458;2024-01-15T18:57:10;6.40;;;2.90;;
41887;SDS011;63122;52.424;13.458;2024-01-15T18:59:09;6.10;;;3.30;;
41887;SDS011;63122;52.424;13.458;2024-01-15T19:01:08;7.60;;;3.60;;
41887;SDS011;63122;52.424;13.458;2024-01-15T19:03:05;13.13;;;3.53;;